createdAt,value
2023-03-02T00:00:48.242Z,3.40
2023-03-02T00:03:18.090Z,3.50
2023-03-02T00:05:47.097Z,3.67
2023-03-02T00:08:15.053Z,3.50
2023-03-02T00:10:44.299Z,3.70
2023-03-02T00:13:12.316Z,3.70
2023-03-02T00:15:40.276Z,3.30
2023-03-02T00:18:08.225Z,3.50
2023-03-02T00:20:36.704Z,3.77
2023-03-02T00:23:04.583Z,3.67
2023-03-02T00:25:32.490Z,3.50
2023-03-02T00:28:01.796Z,3.53
2023-03-02T00:30:29.763Z,3.73
2023-03-02T00:32:58.391Z,3.47
2023-03-02T00:35:27.039Z,3.57
2023-03-02T00:37:56.761Z,3.60
2023-03-02T00:40:24.677Z,3.50
2023-03-02T00:42:52.622Z,3.50
2023-03-02T00:45:21.964Z,3.63
2023-03-02T00:47:49.842Z,3.70
2023-03-02T00:50:18.067Z,3.50
2023-03-02T00:52:45.972Z,3.37
2023-03-02T00:55:13.863Z,3.60
2023-03-02T00:57:41.752Z,3.37
2023-03-02T01:00:10.990Z,3.57
2023-03-02T01:02:44.357Z,3.73
2023-03-02T01:05:15.928Z,3.40
2023-03-02T01:07:43.910Z,3.77
2023-03-02T01:10:12.899Z,3.53
2023-03-02T01:12:42.929Z,3.67
2023-03-02T01:15:11.929Z,3.80
2023-03-02T01:17:42.851Z,3.50
2023-03-02T01:20:11.945Z,3.60
2023-03-02T01:22:39.927Z,3.53
2023-03-02T01:25:08.545Z,3.40
2023-03-02T01:27:36.718Z,3.47
2023-03-02T01:30:04.940Z,3.70
2023-03-02T01:32:33.016Z,3.50
2023-03-02T01:35:02.355Z,3.80
2023-03-02T01:37:30.241Z,3.60
2023-03-02T01:39:58.165Z,3.80
2023-03-02T01:42:26.096Z,3.60
2023-03-02T01:44:57.060Z,3.53
2023-03-02T01:47:26.481Z,4.17
2023-03-02T01:50:06.451Z,3.70
2023-03-02T01:52:38.861Z,3.63
2023-03-02T01:55:09.515Z,4.40
2023-03-02T01:57:43.480Z,3.67
2023-03-02T02:00:14.083Z,4.13
2023-03-02T02:02:42.439Z,3.70
2023-03-02T02:05:12.478Z,3.60
2023-03-02T02:07:41.081Z,3.73
2023-03-02T02:10:10.947Z,3.60
2023-03-02T02:12:38.898Z,3.60
2023-03-02T02:15:07.869Z,3.60
2023-03-02T02:17:35.953Z,3.50
2023-03-02T02:20:09.068Z,3.77
2023-03-02T02:22:44.539Z,3.63
2023-03-02T02:25:16.349Z,3.87
2023-03-02T02:27:45.626Z,4.10
2023-03-02T02:30:13.620Z,3.67
2023-03-02T02:32:42.073Z,3.40
2023-03-02T02:35:12.715Z,4.37
2023-03-02T02:37:42.772Z,3.93
2023-03-02T02:40:15.067Z,3.93
2023-03-02T02:42:45.909Z,3.80
2023-03-02T02:45:20.089Z,4.00
2023-03-02T02:47:48.509Z,3.77
2023-03-02T02:50:19.126Z,3.50
2023-03-02T02:52:47.878Z,3.90
2023-03-02T02:55:17.028Z,3.77
2023-03-02T02:57:46.406Z,3.50
2023-03-02T03:00:18.325Z,4.13
2023-03-02T03:02:47.200Z,4.00
2023-03-02T03:05:15.242Z,3.60
2023-03-02T03:07:43.280Z,4.00
2023-03-02T03:10:13.211Z,3.40
2023-03-02T03:12:41.204Z,3.50
2023-03-02T03:15:11.501Z,3.80
2023-03-02T03:17:39.394Z,3.80
2023-03-02T03:20:09.402Z,3.73
2023-03-02T03:22:41.727Z,3.70
2023-03-02T03:25:15.602Z,4.17
2023-03-02T03:27:46.190Z,4.13
2023-03-02T03:30:16.857Z,4.00
2023-03-02T03:32:45.318Z,3.50
2023-03-02T03:35:15.283Z,3.90
2023-03-02T03:37:43.569Z,3.90
2023-03-02T03:40:12.478Z,4.00
2023-03-02T03:42:43.877Z,3.80
2023-03-02T03:45:11.963Z,4.00
2023-03-02T03:47:42.026Z,4.03
2023-03-02T03:50:12.138Z,4.53
2023-03-02T03:52:41.191Z,4.13
2023-03-02T03:55:14.702Z,3.90
2023-03-02T03:57:44.634Z,3.87
2023-03-02T04:00:16.686Z,3.90
2023-03-02T04:02:52.299Z,3.80
2023-03-02T04:05:21.175Z,4.70
2023-03-02T04:07:52.570Z,4.27
2023-03-02T04:10:21.537Z,4.57
2023-03-02T04:12:51.605Z,4.07
2023-03-02T04:15:19.835Z,4.30
2023-03-02T04:17:49.242Z,4.70
2023-03-02T04:20:21.439Z,4.27
2023-03-02T04:22:53.472Z,4.10
2023-03-02T04:25:24.007Z,4.40
2023-03-02T04:27:55.440Z,4.20
2023-03-02T04:30:26.846Z,4.20
2023-03-02T04:32:57.635Z,4.23
2023-03-02T04:35:29.206Z,4.10
2023-03-02T04:37:57.501Z,4.73
2023-03-02T04:40:25.709Z,4.20
2023-03-02T04:42:53.608Z,4.00
2023-03-02T04:45:21.563Z,3.93
2023-03-02T04:47:49.468Z,4.20
2023-03-02T04:50:17.393Z,3.90
2023-03-02T04:52:46.903Z,4.33
2023-03-02T04:55:17.829Z,4.20
2023-03-02T04:57:45.696Z,4.20
2023-03-02T05:00:14.429Z,4.23
2023-03-02T05:02:42.399Z,4.20
2023-03-02T05:05:12.649Z,4.20
2023-03-02T05:07:40.536Z,4.27
2023-03-02T05:10:10.984Z,4.30
2023-03-02T05:12:54.565Z,4.30
2023-03-02T05:15:22.697Z,4.23
2023-03-02T05:17:50.587Z,4.50
2023-03-02T05:20:19.310Z,4.43
2023-03-02T05:22:47.314Z,4.20
2023-03-02T05:25:16.542Z,4.73
2023-03-02T05:27:44.406Z,4.67
2023-03-02T05:30:13.715Z,4.20
2023-03-02T05:32:41.913Z,4.80
2023-03-02T05:35:10.449Z,4.10
2023-03-02T05:37:41.493Z,4.13
2023-03-02T05:40:10.506Z,4.53
2023-03-02T05:42:39.756Z,4.57
2023-03-02T05:45:09.259Z,4.60
2023-03-02T05:47:37.224Z,4.87
2023-03-02T05:50:07.133Z,4.30
2023-03-02T05:52:35.002Z,4.87
2023-03-02T05:55:02.945Z,4.20
2023-03-02T05:57:30.834Z,4.70
2023-03-02T06:00:00.080Z,4.10
2023-03-02T06:02:28.078Z,4.40
2023-03-02T06:04:56.530Z,4.23
2023-03-02T06:07:24.835Z,4.57
2023-03-02T06:09:52.740Z,4.40
2023-03-02T06:12:20.656Z,4.93
2023-03-02T06:14:48.508Z,4.20
2023-03-02T06:17:17.811Z,4.00
2023-03-02T06:19:45.673Z,4.07
2023-03-02T06:22:13.543Z,3.93
2023-03-02T06:24:41.413Z,4.10
2023-03-02T06:27:09.325Z,4.47
2023-03-02T06:29:37.284Z,3.90
2023-03-02T06:32:05.451Z,4.30
2023-03-02T06:34:35.503Z,4.33
2023-03-02T06:37:03.458Z,4.40
2023-03-02T06:39:31.348Z,4.77
2023-03-02T06:42:00.208Z,4.47
2023-03-02T06:44:28.108Z,4.20
2023-03-02T06:46:56.043Z,4.40
2023-03-02T06:49:24.718Z,4.23
2023-03-02T06:51:53.980Z,4.67
2023-03-02T06:54:23.994Z,4.80
2023-03-02T06:56:52.054Z,4.50
2023-03-02T06:59:19.968Z,4.20
2023-03-02T07:01:49.333Z,4.07
2023-03-02T07:04:17.230Z,4.17
2023-03-02T07:06:45.180Z,4.30
2023-03-02T07:09:14.464Z,4.40
2023-03-02T07:11:42.434Z,4.30
2023-03-02T07:14:10.387Z,4.37
2023-03-02T07:16:38.395Z,4.40
2023-03-02T07:19:06.403Z,4.13
2023-03-02T07:21:34.688Z,4.63
2023-03-02T07:24:02.788Z,4.47
2023-03-02T07:26:32.074Z,4.60
2023-03-02T07:29:00.885Z,4.40
2023-03-02T07:31:28.879Z,4.90
2023-03-02T07:33:56.785Z,4.90
2023-03-02T07:36:26.200Z,4.50
2023-03-02T07:38:54.782Z,4.90
2023-03-02T07:41:22.804Z,4.57
2023-03-02T07:43:52.060Z,4.47
2023-03-02T07:46:19.975Z,4.70
2023-03-02T07:48:47.939Z,4.37
2023-03-02T07:51:15.864Z,4.60
2023-03-02T07:53:43.790Z,4.43
2023-03-02T07:56:12.196Z,4.77
2023-03-02T07:58:40.069Z,4.80
2023-03-02T08:01:09.808Z,4.40
2023-03-02T08:03:37.798Z,4.30
2023-03-02T08:06:07.414Z,4.40
2023-03-02T08:08:35.714Z,4.77
2023-03-02T08:11:07.364Z,4.50
2023-03-02T08:13:35.327Z,4.80
2023-03-02T08:16:03.496Z,4.30
2023-03-02T08:18:32.934Z,4.23
2023-03-02T08:21:00.924Z,3.83
2023-03-02T08:23:29.051Z,4.47
2023-03-02T08:25:56.992Z,4.60
2023-03-02T08:28:24.922Z,4.13
2023-03-02T08:30:57.334Z,4.17
2023-03-02T08:33:25.395Z,4.27
2023-03-02T08:35:58.592Z,4.20
2023-03-02T08:38:26.763Z,4.80
2023-03-02T08:40:54.628Z,4.60
2023-03-02T08:43:22.829Z,4.80
2023-03-02T08:45:51.993Z,4.30
2023-03-02T08:48:20.021Z,4.50
2023-03-02T08:50:55.638Z,4.23
2023-03-02T08:53:24.916Z,4.70
2023-03-02T08:55:53.086Z,4.70
2023-03-02T08:58:21.090Z,4.50
2023-03-02T09:00:49.161Z,4.40
2023-03-02T09:03:17.790Z,4.40
2023-03-02T09:05:45.745Z,4.17
2023-03-02T09:08:13.691Z,4.20
2023-03-02T09:10:42.993Z,3.93
2023-03-02T09:13:10.852Z,4.43
2023-03-02T09:15:38.764Z,4.20
2023-03-02T09:18:06.802Z,4.40
2023-03-02T09:20:35.481Z,4.10
2023-03-02T09:23:03.335Z,4.13
2023-03-02T09:25:31.257Z,4.47
2023-03-02T09:28:00.505Z,4.90
2023-03-02T09:30:28.625Z,4.43
2023-03-02T09:32:56.787Z,4.20
2023-03-02T09:35:24.773Z,4.40
2023-03-02T09:37:52.733Z,4.40
2023-03-02T09:40:21.400Z,4.60
2023-03-02T09:42:55.505Z,4.17
2023-03-02T09:45:48.985Z,4.27
2023-03-02T09:48:20.260Z,4.00
2023-03-02T09:50:53.290Z,4.03
2023-03-02T09:53:40.759Z,4.27
2023-03-02T09:56:13.899Z,4.30
2023-03-02T09:58:41.959Z,4.37
2023-03-02T10:01:16.587Z,4.07
2023-03-02T10:03:49.078Z,4.17
2023-03-02T10:06:17.069Z,4.30
2023-03-02T10:08:45.055Z,4.23
2023-03-02T10:11:15.908Z,3.73
2023-03-02T10:13:47.652Z,4.37
2023-03-02T10:16:24.625Z,4.27
2023-03-02T10:18:55.628Z,4.23
2023-03-02T10:21:26.097Z,4.30
2023-03-02T10:23:57.192Z,4.83
2023-03-02T10:26:30.706Z,4.20
2023-03-02T10:29:02.660Z,4.20
2023-03-02T10:31:32.415Z,4.40
2023-03-02T10:34:00.468Z,4.43
2023-03-02T10:36:29.595Z,3.90
2023-03-02T10:38:58.383Z,4.30
2023-03-02T10:41:27.656Z,4.53
2023-03-02T10:43:56.759Z,4.23
2023-03-02T10:46:24.672Z,3.97
2023-03-02T10:48:56.182Z,4.17
2023-03-02T10:51:25.817Z,3.57
2023-03-02T10:54:04.705Z,4.00
2023-03-02T10:56:32.888Z,3.70
2023-03-02T10:59:03.369Z,3.70
2023-03-02T11:01:31.857Z,3.67
2023-03-02T11:04:02.005Z,3.47
2023-03-02T11:06:31.033Z,3.90
2023-03-02T11:09:00.796Z,4.37
2023-03-02T11:11:28.865Z,3.80
2023-03-02T11:13:57.249Z,4.00
2023-03-02T11:16:28.340Z,3.80
2023-03-02T11:18:58.586Z,3.90
2023-03-02T11:21:31.272Z,3.63
2023-03-02T11:24:01.393Z,4.03
2023-03-02T11:26:30.295Z,3.83
2023-03-02T11:29:00.785Z,3.50
2023-03-02T11:31:33.953Z,3.80
2023-03-02T11:34:15.619Z,3.50
2023-03-02T11:36:53.467Z,3.73
2023-03-02T11:39:58.564Z,3.83
2023-03-02T11:42:28.011Z,3.67
2023-03-02T11:44:56.174Z,3.70
2023-03-02T11:47:24.116Z,4.10
2023-03-02T11:49:55.557Z,3.80
2023-03-02T11:52:25.777Z,3.50
2023-03-02T11:54:54.816Z,3.73
2023-03-02T11:57:23.946Z,3.67
2023-03-02T11:59:51.905Z,3.57
2023-03-02T12:02:19.869Z,3.60
2023-03-02T12:04:48.338Z,3.70
2023-03-02T12:07:22.769Z,3.60
2023-03-02T12:10:06.969Z,3.80
2023-03-02T12:12:41.919Z,3.63
2023-03-02T12:15:45.485Z,3.47
2023-03-02T12:18:32.295Z,3.20
2023-03-02T12:21:04.249Z,3.60
2023-03-02T12:23:32.933Z,3.40
2023-03-02T12:26:07.761Z,3.73
2023-03-02T12:28:36.748Z,3.50
2023-03-02T12:31:10.112Z,3.47
2023-03-02T12:33:46.574Z,3.23
2023-03-02T12:36:16.665Z,3.40
2023-03-02T12:38:47.915Z,3.33
2023-03-02T12:41:51.698Z,3.50
2023-03-02T12:44:27.837Z,3.43
2023-03-02T12:46:56.333Z,3.63
2023-03-02T12:49:36.225Z,3.40
2023-03-02T12:52:04.929Z,3.27
2023-03-02T12:54:34.055Z,3.20
2023-03-02T12:57:15.544Z,3.27
2023-03-02T12:59:43.606Z,3.17
2023-03-02T13:02:15.514Z,3.13
2023-03-02T13:04:43.747Z,3.30
2023-03-02T13:07:18.329Z,3.30
2023-03-02T13:09:56.095Z,3.60
2023-03-02T13:12:28.166Z,3.43
2023-03-02T13:14:57.574Z,3.57
2023-03-02T13:17:27.119Z,3.30
2023-03-02T13:19:55.030Z,3.43
2023-03-02T13:22:23.295Z,3.30
2023-03-02T13:24:53.142Z,3.40
2023-03-02T13:27:22.109Z,3.70
2023-03-02T13:29:52.037Z,2.97
2023-03-02T13:32:24.489Z,3.60
2023-03-02T13:34:53.576Z,3.30
2023-03-02T13:37:36.016Z,3.50
2023-03-02T13:40:06.788Z,3.27
2023-03-02T13:42:38.561Z,3.40
2023-03-02T13:45:25.356Z,3.60
2023-03-02T13:47:53.427Z,3.27
2023-03-02T13:50:22.238Z,3.17
2023-03-02T13:52:50.675Z,3.30
2023-03-02T13:55:19.375Z,3.27
2023-03-02T13:57:47.518Z,3.57
2023-03-02T14:00:19.637Z,3.20
2023-03-02T14:02:48.562Z,3.00
2023-03-02T14:05:18.304Z,3.30
2023-03-02T14:07:49.151Z,3.13
2023-03-02T14:10:18.119Z,3.40
2023-03-02T14:12:50.816Z,3.17
2023-03-02T14:15:22.475Z,3.20
2023-03-02T14:17:52.979Z,3.10
2023-03-02T14:20:21.462Z,3.10
2023-03-02T14:22:50.444Z,3.10
2023-03-02T14:25:19.449Z,3.23
2023-03-02T14:27:47.940Z,3.20
2023-03-02T14:30:21.233Z,3.40
2023-03-02T14:32:51.070Z,2.87
2023-03-02T14:35:19.061Z,3.13
2023-03-02T14:37:48.690Z,2.90
2023-03-02T14:40:18.489Z,3.13
2023-03-02T14:42:46.370Z,2.90
2023-03-02T14:45:14.234Z,2.90
2023-03-02T14:47:42.129Z,3.23
2023-03-02T14:50:12.515Z,2.77
2023-03-02T14:52:42.042Z,3.03
2023-03-02T14:55:15.536Z,3.17
2023-03-02T14:57:43.448Z,2.80
2023-03-02T15:00:15.192Z,2.70
2023-03-02T15:02:43.248Z,2.97
2023-03-02T15:05:12.561Z,2.90
2023-03-02T15:07:40.978Z,3.00
2023-03-02T15:10:12.670Z,3.07
2023-03-02T15:12:40.608Z,3.00
2023-03-02T15:15:09.713Z,3.10
2023-03-02T15:17:37.666Z,2.77
2023-03-02T15:20:06.929Z,3.20
2023-03-02T15:22:36.182Z,2.67
2023-03-02T15:25:04.068Z,2.77
2023-03-02T15:27:34.082Z,2.90
2023-03-02T15:30:01.967Z,3.00
2023-03-02T15:32:32.632Z,2.67
2023-03-02T15:35:00.580Z,3.00
2023-03-02T15:37:30.920Z,3.33
2023-03-02T15:40:00.323Z,3.03
2023-03-02T15:42:28.239Z,3.00
2023-03-02T15:44:56.175Z,2.90
2023-03-02T15:47:24.103Z,2.57
2023-03-02T15:49:52.037Z,3.00
2023-03-02T15:52:20.922Z,3.20
2023-03-02T15:54:48.996Z,2.63
2023-03-02T15:57:19.843Z,2.73
2023-03-02T15:59:47.778Z,3.17
2023-03-02T16:02:16.130Z,2.63
2023-03-02T16:04:44.075Z,2.87
2023-03-02T16:07:13.933Z,2.73
2023-03-02T16:09:41.903Z,2.90
2023-03-02T16:12:09.821Z,2.80
2023-03-02T16:14:39.224Z,2.80
2023-03-02T16:17:07.072Z,3.10
2023-03-02T16:19:34.979Z,2.60
2023-03-02T16:22:02.927Z,3.00
2023-03-02T16:24:30.908Z,2.50
2023-03-02T16:26:59.262Z,3.30
2023-03-02T16:29:31.005Z,2.50
2023-03-02T16:32:00.387Z,2.60
2023-03-02T16:34:28.479Z,2.67
2023-03-02T16:36:56.377Z,3.00
2023-03-02T16:39:24.497Z,2.80
2023-03-02T16:41:52.520Z,2.60
2023-03-02T16:44:20.508Z,2.90
2023-03-02T16:46:48.448Z,3.00
2023-03-02T16:49:17.760Z,2.40
2023-03-02T16:51:45.716Z,2.70
2023-03-02T16:54:15.650Z,2.60
2023-03-02T16:56:47.195Z,2.57
2023-03-02T16:59:15.227Z,3.40
2023-03-02T17:01:43.216Z,2.70
2023-03-02T17:04:13.136Z,2.80
2023-03-02T17:06:59.944Z,2.60
2023-03-02T17:09:28.899Z,2.90
2023-03-02T17:11:56.837Z,2.70
2023-03-02T17:14:24.713Z,3.00
2023-03-02T17:16:52.568Z,2.60
2023-03-02T17:19:20.666Z,2.53
2023-03-02T17:21:49.907Z,2.90
2023-03-02T17:24:19.365Z,2.70
2023-03-02T17:26:47.439Z,2.60
2023-03-02T17:29:16.008Z,2.50
2023-03-02T17:31:44.806Z,2.57
2023-03-02T17:34:12.776Z,2.60
2023-03-02T17:36:40.708Z,2.70
2023-03-02T17:39:09.972Z,2.97
2023-03-02T17:41:37.960Z,2.73
2023-03-02T17:44:06.035Z,2.70
2023-03-02T17:46:36.563Z,2.63
2023-03-02T17:49:04.715Z,2.40
2023-03-02T17:51:32.728Z,2.70
2023-03-02T17:54:00.710Z,3.00
2023-03-02T17:56:30.185Z,2.50
2023-03-02T17:58:59.433Z,2.50
2023-03-02T18:01:27.367Z,2.70
2023-03-02T18:03:55.327Z,2.50
2023-03-02T18:06:23.349Z,2.43
2023-03-02T18:08:51.900Z,2.63
2023-03-02T18:11:22.465Z,2.53
2023-03-02T18:13:54.682Z,2.60
2023-03-02T18:16:22.736Z,3.10
2023-03-02T18:18:53.503Z,3.07
2023-03-02T18:21:21.803Z,2.60
2023-03-02T18:23:49.682Z,2.60
2023-03-02T18:26:17.771Z,2.87
2023-03-02T18:28:45.685Z,2.40
2023-03-02T18:31:15.346Z,2.73
2023-03-02T18:33:43.475Z,2.70
2023-03-02T18:36:11.591Z,2.90
2023-03-02T18:38:39.668Z,2.93
2023-03-02T18:41:07.898Z,3.10
2023-03-02T18:43:38.336Z,2.93
2023-03-02T18:46:06.550Z,3.07
2023-03-02T18:48:35.775Z,2.93
2023-03-02T18:51:03.731Z,3.00
2023-03-02T18:53:32.880Z,3.40
2023-03-02T18:56:00.803Z,3.73
2023-03-02T18:58:33.899Z,3.30
2023-03-02T19:01:01.947Z,3.27
2023-03-02T19:03:29.927Z,3.50
2023-03-02T19:06:02.138Z,3.27
2023-03-02T19:08:30.772Z,3.77
2023-03-02T19:10:58.687Z,3.60
2023-03-02T19:13:26.603Z,3.77
2023-03-02T19:15:54.876Z,3.80
2023-03-02T19:18:24.309Z,3.50
2023-03-02T19:20:54.282Z,3.90
2023-03-02T19:23:23.580Z,3.80
2023-03-02T19:25:51.666Z,3.83
2023-03-02T19:28:21.542Z,3.90
2023-03-02T19:30:49.663Z,4.17
2023-03-02T19:33:17.836Z,4.40
2023-03-02T19:35:46.023Z,3.90
2023-03-02T19:38:14.018Z,4.00
2023-03-02T19:40:43.260Z,3.90
2023-03-02T19:43:11.120Z,4.33
2023-03-02T19:45:39.044Z,3.77
2023-03-02T19:48:08.938Z,4.27
2023-03-02T19:50:36.843Z,4.20
2023-03-02T19:53:04.766Z,4.30
2023-03-02T19:55:34.148Z,5.10
2023-03-02T19:58:04.917Z,4.30
2023-03-02T20:00:38.205Z,4.70
2023-03-02T20:03:08.372Z,4.47
2023-03-02T20:05:36.630Z,4.73
2023-03-02T20:08:04.543Z,4.10
2023-03-02T20:10:33.397Z,4.27
2023-03-02T20:13:03.446Z,4.20
2023-03-02T20:15:32.180Z,4.27
2023-03-02T20:18:02.413Z,4.87
2023-03-02T20:20:30.438Z,4.97
2023-03-02T20:23:00.001Z,4.93
2023-03-02T20:25:28.010Z,4.90
2023-03-02T20:27:56.023Z,4.53
2023-03-02T20:30:28.767Z,4.60
2023-03-02T20:32:57.163Z,5.00
2023-03-02T20:35:25.219Z,5.30
2023-03-02T20:37:57.237Z,5.00
2023-03-02T20:40:25.455Z,4.77
2023-03-02T20:42:54.134Z,5.30
2023-03-02T20:45:22.487Z,4.80
2023-03-02T20:47:51.775Z,5.20
2023-03-02T20:50:23.441Z,4.80
2023-03-02T20:52:51.340Z,4.80
2023-03-02T20:55:19.397Z,5.00
2023-03-02T20:57:48.471Z,5.20
2023-03-02T21:00:20.597Z,4.87
2023-03-02T21:02:48.570Z,5.93
2023-03-02T21:05:19.298Z,5.13
2023-03-02T21:07:47.446Z,5.73
2023-03-02T21:10:18.829Z,5.03
2023-03-02T21:12:48.928Z,4.90
2023-03-02T21:15:17.073Z,5.23
2023-03-02T21:17:44.959Z,5.17
2023-03-02T21:20:18.384Z,5.67
2023-03-02T21:22:47.767Z,5.57
2023-03-02T21:25:16.938Z,5.87
2023-03-02T21:27:44.882Z,5.77
2023-03-02T21:30:18.694Z,5.57
2023-03-02T21:32:46.680Z,5.80
2023-03-02T21:35:14.785Z,5.80
2023-03-02T21:37:42.832Z,5.57
2023-03-02T21:40:14.826Z,5.83
2023-03-02T21:42:42.737Z,5.27
2023-03-02T21:45:12.415Z,6.00
2023-03-02T21:47:41.178Z,5.43
2023-03-02T21:50:11.186Z,5.90
2023-03-02T21:52:40.338Z,6.20
2023-03-02T21:55:09.000Z,5.80
2023-03-02T21:57:38.295Z,6.93
2023-03-02T22:00:09.846Z,6.20
2023-03-02T22:02:40.535Z,6.00
2023-03-02T22:05:08.995Z,6.40
2023-03-02T22:07:36.889Z,6.87
2023-03-02T22:10:05.251Z,6.47
2023-03-02T22:12:33.371Z,6.17
2023-03-02T22:15:04.229Z,6.47
2023-03-02T22:17:32.096Z,7.13
2023-03-02T22:20:02.320Z,7.20
2023-03-02T22:22:31.063Z,6.80
2023-03-02T22:24:58.931Z,6.80
2023-03-02T22:27:28.321Z,6.20
2023-03-02T22:29:57.864Z,6.73
2023-03-02T22:32:28.488Z,7.63
2023-03-02T22:34:57.270Z,7.03
2023-03-02T22:37:26.155Z,6.90
2023-03-02T22:39:55.202Z,7.40
2023-03-02T22:42:23.654Z,6.77
2023-03-02T22:44:53.468Z,7.77
2023-03-02T22:47:25.087Z,7.33
2023-03-02T22:49:56.982Z,8.10
2023-03-02T22:52:25.582Z,7.60
2023-03-02T22:54:53.713Z,8.10
2023-03-02T22:57:30.005Z,8.10
2023-03-02T23:00:20.195Z,7.23
2023-03-02T23:02:48.132Z,7.90
2023-03-02T23:05:27.330Z,7.87
2023-03-02T23:08:00.626Z,7.80
2023-03-02T23:10:28.656Z,7.87
2023-03-02T23:12:56.556Z,7.77
2023-03-02T23:15:24.978Z,7.53
2023-03-02T23:17:52.822Z,8.17
2023-03-02T23:20:20.772Z,7.80
2023-03-02T23:22:50.376Z,7.87
2023-03-02T23:25:19.326Z,7.53
2023-03-02T23:27:47.179Z,8.50
2023-03-02T23:30:17.796Z,6.97
2023-03-02T23:32:46.022Z,8.37
2023-03-02T23:35:13.959Z,7.60
2023-03-02T23:37:41.853Z,8.07
2023-03-02T23:40:12.714Z,8.30
2023-03-02T23:42:40.576Z,8.10
2023-03-02T23:45:09.820Z,7.83
2023-03-02T23:47:37.705Z,7.30
2023-03-02T23:50:06.568Z,7.77
2023-03-02T23:52:34.481Z,7.63
2023-03-02T23:55:02.326Z,7.70
2023-03-02T23:57:31.530Z,7.57
